Russell, Mississippi
Current Conditions -  °F | °C
As of 7:58 PM on Sunday 21 Dec 2014 (Local Time) from KMEI Reporting Station
Haze Haze  
Wind Chill: 46°   Ceiling: 300
Heat Index: 49°   Visibility: 4mi
Dew Point: 47°   Wind: 7mph
Humidity: 93%   Direction: 40°NE
Pressure: 30.03"   Gusts: NA
Location:  32.3221°N, 88.5771°W
Report Text: KMEI 220158Z 04006KT 4SM BR OVC003 09/08 A3003 RMK AO2 SLP170 T00940083
Loading
Personal Weather Stations






























Interactive Weather Map New forecast layout! Learn more

10-Day Weather Forecast

Advertisements
Track Severe Weather on mobile